createdAt,value
2023-05-24T00:00:48.410Z,20.49
2023-05-24T00:03:18.910Z,20.50
2023-05-24T00:05:47.060Z,20.50
2023-05-24T00:08:16.030Z,20.50
2023-05-24T00:10:44.521Z,20.49
2023-05-24T00:13:15.620Z,20.48
2023-05-24T00:15:45.029Z,20.48
2023-05-24T00:18:13.049Z,20.48
2023-05-24T00:20:41.312Z,20.46
2023-05-24T00:23:09.606Z,20.47
2023-05-24T00:25:37.946Z,20.47
2023-05-24T00:28:05.906Z,20.47
2023-05-24T00:30:33.904Z,20.46
2023-05-24T00:33:03.338Z,20.45
2023-05-24T00:35:31.379Z,20.44
2023-05-24T00:37:59.340Z,20.43
2023-05-24T00:40:27.346Z,20.43
2023-05-24T00:42:55.425Z,20.43
2023-05-24T00:45:23.462Z,20.43
2023-05-24T00:47:54.336Z,20.43
2023-05-24T00:50:24.264Z,20.42
2023-05-24T00:52:52.991Z,20.42
2023-05-24T00:55:21.585Z,20.41
2023-05-24T00:57:49.684Z,20.41
2023-05-24T01:00:18.352Z,20.41
2023-05-24T01:02:48.440Z,20.41
2023-05-24T01:05:17.411Z,20.39
2023-05-24T01:08:00.749Z,20.41
2023-05-24T01:10:36.139Z,20.40
2023-05-24T01:13:20.283Z,20.38
2023-05-24T01:15:55.430Z,20.38
2023-05-24T01:18:30.939Z,20.37
2023-05-24T01:21:06.982Z,20.37
2023-05-24T01:23:46.604Z,20.37
2023-05-24T01:26:28.489Z,20.36
2023-05-24T01:28:58.334Z,20.37
2023-05-24T01:31:26.915Z,20.35
2023-05-24T01:33:54.919Z,20.34
2023-05-24T01:36:45.121Z,20.35
2023-05-24T01:39:15.405Z,20.33
2023-05-24T01:41:51.468Z,20.34
2023-05-24T01:44:28.764Z,20.34
2023-05-24T01:47:05.911Z,20.34
2023-05-24T01:49:39.990Z,20.33
2023-05-24T01:52:13.730Z,20.32
2023-05-24T01:54:46.826Z,20.32
2023-05-24T01:57:15.951Z,20.32
2023-05-24T01:59:46.596Z,20.31
2023-05-24T02:02:14.938Z,20.30
2023-05-24T02:04:43.363Z,20.30
2023-05-24T02:07:11.499Z,20.30
2023-05-24T02:09:39.505Z,20.30
2023-05-24T02:12:11.924Z,20.28
2023-05-24T02:14:42.748Z,20.30
2023-05-24T02:17:12.239Z,20.28
2023-05-24T02:19:40.170Z,20.29
2023-05-24T02:22:08.300Z,20.29
2023-05-24T02:24:36.669Z,20.29
2023-05-24T02:27:04.941Z,20.28
2023-05-24T02:29:33.037Z,20.27
2023-05-24T02:32:01.072Z,20.27
2023-05-24T02:34:30.635Z,20.26
2023-05-24T02:36:58.887Z,20.25
2023-05-24T02:39:26.947Z,20.24
2023-05-24T02:41:55.021Z,20.23
2023-05-24T02:44:23.023Z,20.24
2023-05-24T02:46:51.092Z,20.26
2023-05-24T02:49:19.045Z,20.26
2023-05-24T02:51:51.699Z,20.26
2023-05-24T02:54:20.086Z,20.27
2023-05-24T02:56:48.058Z,20.27
2023-05-24T02:59:16.164Z,20.28
2023-05-24T03:01:44.426Z,20.28
2023-05-24T03:04:16.553Z,20.26
2023-05-24T03:06:44.523Z,20.27
2023-05-24T03:09:13.925Z,20.27
2023-05-24T03:11:44.739Z,20.26
2023-05-24T03:14:12.892Z,20.23
2023-05-24T03:16:40.978Z,20.26
2023-05-24T03:19:10.125Z,20.26
2023-05-24T03:21:38.540Z,20.25
2023-05-24T03:24:06.995Z,20.25
2023-05-24T03:26:36.463Z,20.24
2023-05-24T03:29:04.469Z,20.24
2023-05-24T03:31:32.589Z,20.22
2023-05-24T03:34:00.696Z,20.21
2023-05-24T03:36:29.211Z,20.20
2023-05-24T03:38:58.499Z,20.21
2023-05-24T03:41:29.361Z,20.21
2023-05-24T03:43:58.760Z,20.20
2023-05-24T03:46:26.818Z,20.20
2023-05-24T03:48:56.957Z,20.19
2023-05-24T03:51:29.502Z,20.18
2023-05-24T03:54:02.457Z,20.19
2023-05-24T03:56:30.495Z,20.18
2023-05-24T03:59:04.157Z,20.18
2023-05-24T04:01:34.548Z,20.17
2023-05-24T04:04:03.532Z,20.19
2023-05-24T04:06:32.401Z,20.18
2023-05-24T04:09:01.959Z,20.18
2023-05-24T04:11:29.958Z,20.18
2023-05-24T04:14:00.559Z,20.17
2023-05-24T04:16:33.975Z,20.16
2023-05-24T04:19:04.055Z,20.15
2023-05-24T04:21:32.485Z,20.14
2023-05-24T04:24:01.710Z,20.13
2023-05-24T04:26:29.969Z,20.14
2023-05-24T04:28:58.283Z,20.12
2023-05-24T04:31:29.460Z,20.13
2023-05-24T04:33:59.805Z,20.11
2023-05-24T04:36:28.938Z,20.12
2023-05-24T04:39:03.036Z,20.12
2023-05-24T04:41:32.425Z,20.12
2023-05-24T04:44:00.773Z,20.13
2023-05-24T04:46:31.480Z,20.14
2023-05-24T04:49:02.176Z,20.15
2023-05-24T04:51:30.315Z,20.14
2023-05-24T04:53:58.298Z,20.16
2023-05-24T04:56:26.315Z,20.16
2023-05-24T04:58:54.294Z,20.17
2023-05-24T05:01:24.713Z,20.18
2023-05-24T05:03:52.805Z,20.19
2023-05-24T05:06:22.221Z,20.20
2023-05-24T05:08:53.068Z,20.19
2023-05-24T05:11:21.046Z,20.19
2023-05-24T05:13:49.077Z,20.20
2023-05-24T05:16:19.288Z,20.21
2023-05-24T05:18:47.385Z,20.22
2023-05-24T05:21:16.017Z,20.22
2023-05-24T05:23:46.041Z,20.24
2023-05-24T05:26:14.179Z,20.21
2023-05-24T05:28:42.199Z,20.25
2023-05-24T05:31:10.176Z,20.25
2023-05-24T05:33:38.175Z,20.26
2023-05-24T05:36:06.465Z,20.27
2023-05-24T05:38:34.595Z,20.26
2023-05-24T05:41:07.313Z,20.28
2023-05-24T05:43:35.604Z,20.28
2023-05-24T05:46:06.617Z,20.29
2023-05-24T05:48:34.633Z,20.31
2023-05-24T05:51:04.911Z,20.31
2023-05-24T05:53:35.035Z,20.32
2023-05-24T05:56:03.160Z,20.32
2023-05-24T05:58:32.501Z,20.34
2023-05-24T06:01:00.534Z,20.35
2023-05-24T06:03:28.670Z,20.35
2023-05-24T06:05:56.955Z,20.34
2023-05-24T06:08:27.464Z,20.35
2023-05-24T06:10:55.533Z,20.36
2023-05-24T06:13:23.705Z,20.38
2023-05-24T06:15:53.284Z,20.37
2023-05-24T06:18:22.338Z,20.38
2023-05-24T06:20:50.650Z,20.39
2023-05-24T06:23:18.637Z,20.39
2023-05-24T06:25:47.306Z,20.41
2023-05-24T06:28:18.061Z,20.41
2023-05-24T06:30:48.358Z,20.41
2023-05-24T06:33:20.858Z,20.42
2023-05-24T06:35:49.159Z,20.42
2023-05-24T06:38:17.822Z,20.42
2023-05-24T06:40:45.883Z,20.42
2023-05-24T06:43:17.510Z,20.44
2023-05-24T06:45:45.536Z,20.45
2023-05-24T06:48:13.610Z,20.45
2023-05-24T06:50:43.965Z,20.46
2023-05-24T06:53:12.491Z,20.46
2023-05-24T06:55:40.594Z,20.46
2023-05-24T06:58:14.245Z,20.47
2023-05-24T07:00:43.022Z,20.47
2023-05-24T07:03:11.325Z,20.45
2023-05-24T07:05:39.330Z,20.47
2023-05-24T07:08:09.468Z,20.48
2023-05-24T07:10:37.571Z,20.46
2023-05-24T07:13:05.663Z,20.46
2023-05-24T07:15:33.602Z,20.47
2023-05-24T07:18:01.653Z,20.46
2023-05-24T07:20:29.716Z,20.47
2023-05-24T07:22:57.748Z,20.47
2023-05-24T07:25:27.550Z,20.48
2023-05-24T07:27:55.516Z,20.47
2023-05-24T07:30:32.301Z,20.48
2023-05-24T07:33:01.973Z,20.48
2023-05-24T07:35:31.185Z,20.48
2023-05-24T07:37:59.383Z,20.49
2023-05-24T07:40:28.935Z,20.48
2023-05-24T07:42:56.982Z,20.48
2023-05-24T07:45:28.687Z,20.48
2023-05-24T07:47:57.069Z,20.48
2023-05-24T07:50:26.530Z,20.48
2023-05-24T07:52:55.253Z,20.47
2023-05-24T07:55:23.469Z,20.48
2023-05-24T07:57:52.819Z,20.47
2023-05-24T08:00:22.083Z,20.48
2023-05-24T08:02:50.557Z,20.47
2023-05-24T08:05:18.991Z,20.47
2023-05-24T08:07:47.083Z,20.48
2023-05-24T08:10:20.152Z,20.48
2023-05-24T08:12:50.076Z,20.48
2023-05-24T08:15:19.595Z,20.48
2023-05-24T08:17:47.647Z,20.48
2023-05-24T08:20:18.699Z,20.49
2023-05-24T08:22:48.413Z,20.49
2023-05-24T08:25:20.059Z,20.50
2023-05-24T08:27:48.190Z,20.50
2023-05-24T08:30:20.331Z,20.52
2023-05-24T08:32:48.435Z,20.50
2023-05-24T08:35:21.576Z,20.51
2023-05-24T08:37:53.058Z,20.52
2023-05-24T08:40:21.198Z,20.51
2023-05-24T08:42:50.396Z,20.52
2023-05-24T08:45:22.596Z,20.53
2023-05-24T08:47:51.518Z,20.53
2023-05-24T08:50:20.229Z,20.55
2023-05-24T08:52:49.072Z,20.54
2023-05-24T08:55:18.392Z,20.54
2023-05-24T08:57:47.175Z,20.56
2023-05-24T09:00:20.776Z,20.56
2023-05-24T09:02:50.218Z,20.55
2023-05-24T09:05:21.815Z,20.55
2023-05-24T09:07:51.078Z,20.57
2023-05-24T09:10:22.214Z,20.57
2023-05-24T09:12:55.997Z,20.57
2023-05-24T09:15:26.704Z,20.58
2023-05-24T09:17:54.799Z,20.58
2023-05-24T09:20:23.372Z,20.59
2023-05-24T09:22:54.167Z,20.58
2023-05-24T09:25:22.709Z,20.57
2023-05-24T09:27:51.997Z,20.57
2023-05-24T09:30:21.206Z,20.58
2023-05-24T09:33:02.147Z,20.58
2023-05-24T09:35:31.448Z,20.58
2023-05-24T09:38:00.782Z,20.57
2023-05-24T09:40:30.133Z,20.58
2023-05-24T09:43:05.988Z,20.58
2023-05-24T09:45:34.467Z,20.59
2023-05-24T09:48:05.546Z,20.59
2023-05-24T09:50:33.629Z,20.58
2023-05-24T09:53:03.637Z,20.58
2023-05-24T09:55:31.979Z,20.59
2023-05-24T09:58:05.188Z,20.59
2023-05-24T10:00:36.776Z,20.58
2023-05-24T10:03:07.915Z,20.59
2023-05-24T10:05:37.050Z,20.59
2023-05-24T10:08:06.157Z,20.59
2023-05-24T10:10:35.247Z,20.59
2023-05-24T10:13:04.041Z,20.60
2023-05-24T10:15:32.108Z,20.60
2023-05-24T10:18:01.868Z,20.59
2023-05-24T10:20:32.772Z,20.59
2023-05-24T10:23:11.098Z,20.60
2023-05-24T10:25:46.753Z,20.59
2023-05-24T10:28:23.526Z,20.60
2023-05-24T10:31:04.312Z,20.60
2023-05-24T10:33:36.242Z,20.59
2023-05-24T10:36:10.050Z,20.59
2023-05-24T10:38:39.718Z,20.59
2023-05-24T10:41:08.800Z,20.60
2023-05-24T10:43:40.650Z,20.60
2023-05-24T10:46:10.750Z,20.59
2023-05-24T10:48:40.875Z,20.59
2023-05-24T10:51:39.546Z,20.60
2023-05-24T10:54:21.717Z,20.59
2023-05-24T10:56:51.353Z,20.60
2023-05-24T10:59:37.682Z,20.60
2023-05-24T11:02:13.756Z,20.60
2023-05-24T11:04:44.435Z,20.61
2023-05-24T11:07:15.702Z,20.60
2023-05-24T11:09:47.136Z,20.61
2023-05-24T11:12:17.818Z,20.62
2023-05-24T11:14:50.215Z,20.62
2023-05-24T11:17:18.278Z,20.63
2023-05-24T11:19:48.741Z,20.63
2023-05-24T11:22:19.242Z,20.65
2023-05-24T11:24:48.142Z,20.64
2023-05-24T11:27:18.128Z,20.64
2023-05-24T11:29:47.939Z,20.63
2023-05-24T11:32:18.163Z,20.64
2023-05-24T11:34:47.903Z,20.64
2023-05-24T11:37:17.902Z,20.65
2023-05-24T11:39:52.245Z,20.65
2023-05-24T11:42:24.350Z,20.64
2023-05-24T11:44:56.741Z,20.65
2023-05-24T11:47:25.296Z,20.65
2023-05-24T11:49:53.686Z,20.65
2023-05-24T11:52:23.514Z,20.62
2023-05-24T11:54:55.061Z,20.65
2023-05-24T11:57:38.381Z,20.66
2023-05-24T12:00:11.301Z,20.65
2023-05-24T12:02:40.396Z,20.66
2023-05-24T12:05:11.515Z,20.66
2023-05-24T12:07:40.930Z,20.66
2023-05-24T12:10:12.390Z,20.66
2023-05-24T12:12:46.167Z,20.66
2023-05-24T12:15:15.069Z,20.67
2023-05-24T12:17:50.121Z,20.67
2023-05-24T12:20:20.716Z,20.67
2023-05-24T12:22:54.129Z,20.67
2023-05-24T12:25:27.267Z,20.66
2023-05-24T12:27:56.724Z,20.67
2023-05-24T12:30:28.429Z,20.68
2023-05-24T12:32:56.877Z,20.68
2023-05-24T12:35:25.530Z,20.69
2023-05-24T12:37:59.780Z,20.69
2023-05-24T12:40:34.131Z,20.71
2023-05-24T12:43:03.948Z,20.71
2023-05-24T12:45:35.046Z,20.72
2023-05-24T12:48:05.041Z,20.71
2023-05-24T12:50:34.887Z,20.68
2023-05-24T12:53:03.268Z,20.68
2023-05-24T12:55:33.011Z,20.70
2023-05-24T12:58:03.520Z,20.71
2023-05-24T13:00:34.850Z,20.74
2023-05-24T13:03:03.261Z,20.74
2023-05-24T13:05:31.848Z,20.77
2023-05-24T13:08:00.252Z,20.78
2023-05-24T13:10:30.593Z,20.79
2023-05-24T13:13:00.876Z,20.80
2023-05-24T13:15:31.688Z,20.81
2023-05-24T13:18:00.202Z,20.82
2023-05-24T13:20:31.513Z,20.83
2023-05-24T13:23:00.059Z,20.85
2023-05-24T13:25:29.827Z,20.85
2023-05-24T13:28:00.164Z,20.85
2023-05-24T13:30:28.707Z,20.86
2023-05-24T13:32:58.827Z,20.85
2023-05-24T13:35:27.232Z,20.86
2023-05-24T13:37:57.930Z,20.87
2023-05-24T13:40:26.447Z,20.86
2023-05-24T13:42:56.936Z,20.87
2023-05-24T13:45:27.084Z,20.87
2023-05-24T13:47:58.477Z,20.87
2023-05-24T13:50:26.995Z,20.87
2023-05-24T13:52:55.564Z,20.88
2023-05-24T13:55:23.855Z,20.87
2023-05-24T13:57:52.460Z,20.86
2023-05-24T14:00:21.884Z,20.86
2023-05-24T14:02:52.015Z,20.84
2023-05-24T14:07:53.711Z,20.84
2023-05-24T14:10:24.832Z,20.84
2023-05-24T14:13:07.835Z,20.85
2023-05-24T14:15:43.225Z,20.85
2023-05-24T14:18:13.064Z,20.85
2023-05-24T14:20:41.344Z,20.86
2023-05-24T14:23:10.439Z,20.84
2023-05-24T14:25:38.788Z,20.85
2023-05-24T14:28:08.698Z,20.85
2023-05-24T14:30:38.743Z,20.84
2023-05-24T14:33:08.583Z,20.85
2023-05-24T14:35:40.045Z,20.84
2023-05-24T14:38:09.785Z,20.85
2023-05-24T14:40:40.238Z,20.85
2023-05-24T14:43:10.909Z,20.85
2023-05-24T14:45:42.335Z,20.85
2023-05-24T14:48:12.847Z,20.84
2023-05-24T14:50:45.840Z,20.84
2023-05-24T14:53:14.229Z,20.84
2023-05-24T14:55:45.426Z,20.82
2023-05-24T14:58:14.548Z,20.82
2023-05-24T15:00:44.431Z,20.81
2023-05-24T15:03:14.918Z,20.80
2023-05-24T15:05:45.658Z,20.80
2023-05-24T15:08:14.338Z,20.79
2023-05-24T15:10:44.911Z,20.80
2023-05-24T15:13:13.953Z,20.80
2023-05-24T15:15:42.335Z,20.80
2023-05-24T15:18:13.385Z,20.79
2023-05-24T15:20:42.076Z,20.77
2023-05-24T15:23:12.025Z,20.79
2023-05-24T15:25:41.009Z,20.79
2023-05-24T15:28:12.955Z,20.79
2023-05-24T15:30:44.204Z,20.79
2023-05-24T15:33:18.159Z,20.79
2023-05-24T15:35:46.603Z,20.79
2023-05-24T15:38:18.776Z,20.78
2023-05-24T15:40:47.068Z,20.79
2023-05-24T15:43:20.141Z,20.80
2023-05-24T15:45:52.282Z,20.77
2023-05-24T15:48:20.508Z,20.79
2023-05-24T15:53:25.501Z,20.80
2023-05-24T15:55:55.688Z,20.79
2023-05-24T15:58:24.106Z,20.79
2023-05-24T16:00:53.571Z,20.79
2023-05-24T16:03:22.045Z,20.79
2023-05-24T16:05:50.697Z,20.79
2023-05-24T16:08:19.151Z,20.79
2023-05-24T16:10:52.215Z,20.80
2023-05-24T16:13:23.225Z,20.78
2023-05-24T16:15:52.361Z,20.80
2023-05-24T16:18:22.943Z,20.81
2023-05-24T16:20:53.617Z,20.82
2023-05-24T16:23:23.259Z,20.82
2023-05-24T16:25:56.188Z,20.80
2023-05-24T16:28:29.049Z,20.81
2023-05-24T16:30:58.680Z,20.82
2023-05-24T16:33:27.096Z,20.83
2023-05-24T16:36:02.962Z,20.83
2023-05-24T16:38:34.715Z,20.86
2023-05-24T16:41:08.958Z,20.88
2023-05-24T16:43:37.306Z,20.88
2023-05-24T16:46:06.424Z,20.90
2023-05-24T16:48:35.038Z,20.91
2023-05-24T16:51:03.677Z,20.92
2023-05-24T16:53:31.897Z,20.92
2023-05-24T16:55:59.956Z,20.93
2023-05-24T16:58:31.914Z,20.95
2023-05-24T17:01:00.193Z,20.96
2023-05-24T17:03:34.074Z,20.96
2023-05-24T17:06:05.248Z,20.95
2023-05-24T17:08:35.383Z,20.94
2023-05-24T17:11:03.599Z,20.92
2023-05-24T17:13:33.597Z,20.93
2023-05-24T17:16:01.887Z,20.93
2023-05-24T17:18:30.731Z,20.93
2023-05-24T17:21:03.375Z,20.93
2023-05-24T17:23:36.500Z,20.92
2023-05-24T17:26:10.880Z,20.91
2023-05-24T17:28:40.896Z,20.91
2023-05-24T17:31:15.150Z,20.91
2023-05-24T17:33:47.625Z,20.89
2023-05-24T17:36:15.884Z,20.88
2023-05-24T17:38:44.464Z,20.88
2023-05-24T17:41:23.370Z,20.87
2023-05-24T17:43:53.623Z,20.86
2023-05-24T17:46:25.310Z,20.86
2023-05-24T17:48:56.727Z,20.87
2023-05-24T17:51:27.075Z,20.86
2023-05-24T17:53:55.461Z,20.85
2023-05-24T17:56:24.334Z,20.85
2023-05-24T17:58:53.843Z,20.87
2023-05-24T18:01:22.900Z,20.87
2023-05-24T18:03:55.875Z,20.86
2023-05-24T18:06:25.081Z,20.86
2023-05-24T18:08:53.777Z,20.84
2023-05-24T18:11:22.407Z,20.84
2023-05-24T18:13:50.782Z,20.83
2023-05-24T18:16:20.430Z,20.83
2023-05-24T18:18:56.189Z,20.82
2023-05-24T18:21:25.687Z,20.83
2023-05-24T18:23:54.525Z,20.83
2023-05-24T18:26:23.047Z,20.83
2023-05-24T18:28:51.574Z,20.83
2023-05-24T18:31:21.959Z,20.82
2023-05-24T18:33:53.779Z,20.83
2023-05-24T18:36:24.013Z,20.82
2023-05-24T18:38:55.456Z,20.82
2023-05-24T18:41:31.074Z,20.82
2023-05-24T18:43:59.672Z,20.82
2023-05-24T18:46:29.926Z,20.82
2023-05-24T18:49:00.602Z,20.82
2023-05-24T18:51:30.304Z,20.80
2023-05-24T18:53:58.490Z,20.81
2023-05-24T18:56:27.003Z,20.81
2023-05-24T18:59:00.034Z,20.80
2023-05-24T19:01:30.037Z,20.82
2023-05-24T19:03:58.742Z,20.82
2023-05-24T19:06:26.825Z,20.81
2023-05-24T19:08:56.580Z,20.80
2023-05-24T19:11:24.780Z,20.80
2023-05-24T19:13:54.597Z,20.79
2023-05-24T19:16:29.075Z,20.80
2023-05-24T19:19:00.042Z,20.82
2023-05-24T19:21:29.258Z,20.84
2023-05-24T19:23:59.530Z,20.83
2023-05-24T19:26:27.638Z,20.83
2023-05-24T19:29:00.678Z,20.83
2023-05-24T19:31:35.872Z,20.84
2023-05-24T19:34:06.138Z,20.84
2023-05-24T19:36:34.363Z,20.86
2023-05-24T19:39:03.090Z,20.87
2023-05-24T19:41:35.317Z,20.86
2023-05-24T19:44:03.589Z,20.88
2023-05-24T19:46:32.020Z,20.86
2023-05-24T19:49:03.364Z,20.86
2023-05-24T19:51:43.220Z,20.86
2023-05-24T19:54:13.042Z,20.86
2023-05-24T19:56:42.453Z,20.85
2023-05-24T19:59:13.268Z,20.86
2023-05-24T20:01:44.709Z,20.85
2023-05-24T20:04:27.287Z,20.85
2023-05-24T20:06:56.754Z,20.85
2023-05-24T20:09:30.720Z,20.84
2023-05-24T20:12:02.837Z,20.83
2023-05-24T20:14:31.854Z,20.81
2023-05-24T20:17:05.044Z,20.83
2023-05-24T20:19:33.878Z,20.82
2023-05-24T20:22:07.813Z,20.80
2023-05-24T20:24:35.923Z,20.80
2023-05-24T20:27:04.676Z,20.79
2023-05-24T20:29:34.116Z,20.79
2023-05-24T20:32:04.248Z,20.78
2023-05-24T20:34:34.476Z,20.77
2023-05-24T20:37:02.926Z,20.77
2023-05-24T20:39:35.129Z,20.75
2023-05-24T20:42:06.543Z,20.76
2023-05-24T20:44:35.612Z,20.75
2023-05-24T20:47:03.659Z,20.73
2023-05-24T20:49:33.085Z,20.74
2023-05-24T20:52:01.558Z,20.74
2023-05-24T20:54:30.694Z,20.73
2023-05-24T20:57:02.833Z,20.73
2023-05-24T20:59:32.441Z,20.73
2023-05-24T21:02:01.136Z,20.72
2023-05-24T21:04:32.223Z,20.71
2023-05-24T21:07:01.997Z,20.71
2023-05-24T21:09:33.164Z,20.69
2023-05-24T21:12:05.035Z,20.70
2023-05-24T21:14:36.919Z,20.69
2023-05-24T21:17:05.203Z,20.68
2023-05-24T21:19:33.267Z,20.68
2023-05-24T21:22:01.527Z,20.66
2023-05-24T21:24:30.112Z,20.67
2023-05-24T21:26:58.410Z,20.66
2023-05-24T21:29:27.896Z,20.66
2023-05-24T21:31:56.216Z,20.65
2023-05-24T21:34:24.420Z,20.65
2023-05-24T21:36:52.940Z,20.65
2023-05-24T21:39:23.715Z,20.65
2023-05-24T21:41:52.027Z,20.64
2023-05-24T21:44:20.249Z,20.64
2023-05-24T21:46:56.586Z,20.63
2023-05-24T21:49:25.436Z,20.61
2023-05-24T21:51:53.663Z,20.62
2023-05-24T21:54:21.973Z,20.60
2023-05-24T21:56:50.473Z,20.59
2023-05-24T21:59:18.692Z,20.58
2023-05-24T22:01:49.795Z,20.56
2023-05-24T22:04:19.673Z,20.56
2023-05-24T22:06:48.032Z,20.55
2023-05-24T22:09:17.723Z,20.53
2023-05-24T22:11:46.371Z,20.53
2023-05-24T22:14:15.034Z,20.52
2023-05-24T22:16:43.632Z,20.51
2023-05-24T22:19:14.956Z,20.51
2023-05-24T22:21:50.433Z,20.51
2023-05-24T22:24:18.832Z,20.49
2023-05-24T22:26:47.728Z,20.50
2023-05-24T22:29:16.084Z,20.48
2023-05-24T22:31:44.184Z,20.47
2023-05-24T22:34:15.356Z,20.47
2023-05-24T22:36:46.349Z,20.47
2023-05-24T22:39:16.021Z,20.46
2023-05-24T22:41:43.949Z,20.46
2023-05-24T22:44:14.706Z,20.45
2023-05-24T22:46:42.815Z,20.45
2023-05-24T22:49:13.456Z,20.44
2023-05-24T22:51:44.160Z,20.44
2023-05-24T22:54:12.521Z,20.42
2023-05-24T22:56:42.026Z,20.43
2023-05-24T22:59:10.156Z,20.42
2023-05-24T23:01:38.303Z,20.42
2023-05-24T23:04:19.839Z,20.41
2023-05-24T23:06:52.658Z,20.41
2023-05-24T23:09:28.946Z,20.40
2023-05-24T23:11:58.974Z,20.40
2023-05-24T23:14:30.317Z,20.39
2023-05-24T23:17:02.639Z,20.38
2023-05-24T23:19:31.193Z,20.36
2023-05-24T23:21:59.346Z,20.38
2023-05-24T23:24:27.490Z,20.37
2023-05-24T23:26:57.043Z,20.36
2023-05-24T23:29:26.599Z,20.37
2023-05-24T23:31:54.666Z,20.37
2023-05-24T23:34:22.659Z,20.36
2023-05-24T23:36:50.718Z,20.36
2023-05-24T23:39:18.908Z,20.35
2023-05-24T23:41:46.851Z,20.35
2023-05-24T23:44:14.869Z,20.35
2023-05-24T23:46:44.311Z,20.35
2023-05-24T23:49:12.812Z,20.35
2023-05-24T23:51:40.796Z,20.34
2023-05-24T23:54:14.685Z,20.32
2023-05-24T23:56:44.875Z,20.33
2023-05-24T23:59:12.897Z,20.33
